Terminal Aerodrome Forecast
Issued by NWS

Home | Current Version | Previous Version | Text Only | Print | Product List | Glossary On
Versions: 1 2 3 4 5 6 7 8 9 10 11 12 13 14 15 16 17 18 19 20 21 22 23 24 25 26 27
000
FTUS44 KBMX 281731
TAFTOI
TAF
KTOI 281731Z 2818/2918 25005KT P6SM VCSH BKN035
     FM290100 02002KT P6SM SCT150
     FM290800 08002KT 4SM BR OVC012
     FM291500 12005KT P6SM BKN025=

USA.gov is the U.S. government's official web portal to all federal, state and local government web resources and services.